createdAt,value
2022-08-02T00:00:34.548Z,96688.47
2022-08-02T00:03:01.505Z,96699.34
2022-08-02T00:05:28.330Z,96700.78
2022-08-02T00:07:55.183Z,96702.81
2022-08-02T00:10:22.131Z,96703.00
2022-08-02T00:12:49.090Z,96698.75
2022-08-02T00:15:16.485Z,96698.69
2022-08-02T00:17:47.234Z,96691.22
2022-08-02T00:20:15.968Z,96706.66
2022-08-02T00:22:42.939Z,96705.28
2022-08-02T00:25:10.165Z,96702.69
2022-08-02T00:27:37.000Z,96713.50
2022-08-02T00:30:05.066Z,96712.25
2022-08-02T00:32:32.006Z,96723.44
2022-08-02T00:34:58.848Z,96727.44
2022-08-02T00:37:25.690Z,96723.00
2022-08-02T00:39:52.547Z,96730.25
2022-08-02T00:42:19.491Z,96732.69
2022-08-02T00:44:46.367Z,96733.56
2022-08-02T00:47:19.165Z,96737.59
2022-08-02T00:49:47.006Z,96725.06
2022-08-02T00:52:14.356Z,96733.31
2022-08-02T00:54:41.608Z,96726.66
2022-08-02T00:57:08.460Z,96729.88
2022-08-02T00:59:35.377Z,96718.91
2022-08-02T01:02:02.270Z,96729.25
2022-08-02T01:04:31.565Z,96726.91
2022-08-02T01:07:00.820Z,96726.53
2022-08-02T01:09:28.113Z,96736.16
2022-08-02T01:11:54.966Z,96735.59
2022-08-02T01:14:24.596Z,96724.56
2022-08-02T01:17:14.143Z,96720.91
2022-08-02T01:20:26.002Z,96727.81
2022-08-02T01:23:49.273Z,96720.03
2022-08-02T01:26:45.132Z,96717.75
2022-08-02T01:29:34.909Z,96725.19
2022-08-02T01:32:14.335Z,96717.84
2022-08-02T01:34:57.352Z,96711.34
2022-08-02T01:37:40.081Z,96719.47
2022-08-02T01:40:14.409Z,96713.94
2022-08-02T01:42:47.601Z,96722.13
2022-08-02T01:45:18.435Z,96721.19
2022-08-02T01:47:46.716Z,96721.31
2022-08-02T01:50:18.679Z,96717.13
2022-08-02T01:52:54.676Z,96707.56
2022-08-02T01:55:35.209Z,96706.31
2022-08-02T01:58:19.454Z,96705.25
2022-08-02T02:00:48.385Z,96698.44
2022-08-02T02:03:22.221Z,96698.47
2022-08-02T02:05:52.974Z,96692.91
2022-08-02T02:08:27.335Z,96689.75
2022-08-02T02:10:57.386Z,96701.78
2022-08-02T02:13:33.455Z,96703.41
2022-08-02T02:16:05.468Z,96701.78
2022-08-02T02:18:40.438Z,96701.59
2022-08-02T02:21:07.744Z,96703.09
2022-08-02T02:23:35.606Z,96696.50
2022-08-02T02:26:05.535Z,96703.78
2022-08-02T02:28:35.862Z,96705.41
2022-08-02T02:31:11.811Z,96709.34
2022-08-02T02:33:49.010Z,96699.06
2022-08-02T02:36:18.328Z,96709.91
2022-08-02T02:38:47.220Z,96700.22
2022-08-02T02:41:15.675Z,96714.28
2022-08-02T02:43:44.685Z,96703.28
2022-08-02T02:46:13.227Z,96704.66
2022-08-02T02:48:40.762Z,96699.91
2022-08-02T02:51:14.085Z,96713.31
2022-08-02T02:54:33.349Z,96715.25
2022-08-02T02:56:32.073Z,96708.13
2022-08-02T02:59:00.691Z,96709.94
2022-08-02T03:01:55.472Z,96716.41
2022-08-02T03:04:15.776Z,96710.09
2022-08-02T03:06:42.772Z,96722.84
2022-08-02T03:09:11.400Z,96717.00
2022-08-02T03:11:39.797Z,96725.75
2022-08-02T03:14:10.923Z,96729.47
2022-08-02T03:16:47.865Z,96728.66
2022-08-02T03:19:16.640Z,96729.94
2022-08-02T03:21:45.324Z,96728.16
2022-08-02T03:24:12.918Z,96728.50
2022-08-02T03:26:40.988Z,96729.16
2022-08-02T03:29:09.745Z,96732.88
2022-08-02T03:31:41.177Z,96723.47
2022-08-02T03:34:08.141Z,96729.63
2022-08-02T03:36:36.415Z,96732.34
2022-08-02T03:39:04.555Z,96732.34
2022-08-02T03:41:32.090Z,96730.56
2022-08-02T03:44:00.009Z,96730.38
2022-08-02T03:46:27.513Z,96721.31
2022-08-02T03:48:55.913Z,96731.19
2022-08-02T03:51:23.411Z,96726.66
2022-08-02T03:53:51.211Z,96733.19
2022-08-02T03:56:18.665Z,96725.44
2022-08-02T03:58:49.079Z,96732.16
2022-08-02T04:01:16.789Z,96737.31
2022-08-02T04:03:43.972Z,96737.97
2022-08-02T04:06:10.841Z,96733.13
2022-08-02T04:08:38.874Z,96738.97
2022-08-02T04:11:25.563Z,96744.00
2022-08-02T04:13:54.677Z,96753.88
2022-08-02T04:16:50.279Z,96742.38
2022-08-02T04:19:46.144Z,96748.00
2022-08-02T04:22:36.708Z,96748.00
2022-08-02T04:25:07.316Z,96747.50
2022-08-02T04:27:50.392Z,96761.19
2022-08-02T04:30:25.573Z,96754.94
2022-08-02T04:32:53.013Z,96758.75
2022-08-02T04:35:21.025Z,96755.19
2022-08-02T04:38:05.702Z,96759.03
2022-08-02T04:40:36.736Z,96763.91
2022-08-02T04:43:03.573Z,96778.44
2022-08-02T04:45:30.950Z,96784.91
2022-08-02T04:48:06.057Z,96784.97
2022-08-02T04:50:34.219Z,96781.81
2022-08-02T04:53:01.369Z,96790.38
2022-08-02T04:55:29.162Z,96783.97
2022-08-02T04:57:57.919Z,96795.53
2022-08-02T05:00:27.139Z,96799.63
2022-08-02T05:02:56.466Z,96795.97
2022-08-02T05:05:23.438Z,96781.88
2022-08-02T05:07:50.286Z,96783.19
2022-08-02T05:10:17.140Z,96777.97
2022-08-02T05:12:44.048Z,96771.13
2022-08-02T05:15:13.296Z,96769.59
2022-08-02T05:17:47.586Z,96773.69
2022-08-02T05:20:16.469Z,96774.59
2022-08-02T05:22:43.866Z,96780.00
2022-08-02T05:25:11.505Z,96782.44
2022-08-02T05:27:38.346Z,96795.59
2022-08-02T05:30:06.358Z,96791.66
2022-08-02T05:32:33.315Z,96794.63
2022-08-02T05:35:03.778Z,96790.16
2022-08-02T05:37:32.198Z,96788.00
2022-08-02T05:40:00.953Z,96791.81
2022-08-02T05:42:32.357Z,96785.69
2022-08-02T05:44:59.892Z,96790.53
2022-08-02T05:47:26.742Z,96794.13
2022-08-02T05:49:53.818Z,96787.91
2022-08-02T05:52:25.484Z,96792.44
2022-08-02T05:55:07.288Z,96787.31
2022-08-02T05:57:53.392Z,96792.16
2022-08-02T06:00:21.596Z,96785.91
2022-08-02T06:03:16.867Z,96782.69
2022-08-02T06:06:05.800Z,96781.44
2022-08-02T06:08:48.710Z,96779.88
2022-08-02T06:11:24.369Z,96781.75
2022-08-02T06:13:51.823Z,96780.91
2022-08-02T06:16:31.833Z,96783.69
2022-08-02T06:19:01.803Z,96797.28
2022-08-02T06:22:32.098Z,96790.56
2022-08-02T06:24:19.824Z,96788.78
2022-08-02T06:26:52.782Z,96787.72
2022-08-02T06:29:23.285Z,96785.75
2022-08-02T06:31:53.887Z,96786.84
2022-08-02T06:34:20.844Z,96784.22
2022-08-02T06:37:02.262Z,96788.31
2022-08-02T06:39:38.781Z,96787.69
2022-08-02T06:42:15.694Z,96787.81
2022-08-02T06:44:49.555Z,96791.66
2022-08-02T06:47:18.010Z,96777.22
2022-08-02T06:49:53.043Z,96778.56
2022-08-02T06:52:31.175Z,96787.91
2022-08-02T06:55:04.966Z,96781.50
2022-08-02T06:57:32.874Z,96775.97
2022-08-02T07:00:04.865Z,96774.72
2022-08-02T07:02:31.854Z,96776.81
2022-08-02T07:04:58.990Z,96780.38
2022-08-02T07:07:27.801Z,96784.22
2022-08-02T07:09:57.016Z,96799.69
2022-08-02T07:12:32.960Z,96793.28
2022-08-02T07:15:04.874Z,96789.47
2022-08-02T07:17:32.150Z,96783.59
2022-08-02T07:19:59.804Z,96784.72
2022-08-02T07:22:28.143Z,96782.00
2022-08-02T07:25:00.017Z,96777.00
2022-08-02T07:27:28.358Z,96778.88
2022-08-02T07:29:55.574Z,96773.78
2022-08-02T07:32:27.545Z,96770.56
2022-08-02T07:34:55.694Z,96776.06
2022-08-02T07:37:53.527Z,96783.88
2022-08-02T07:40:20.265Z,96773.56
2022-08-02T07:42:50.025Z,96781.16
2022-08-02T07:45:17.033Z,96770.13
2022-08-02T07:47:44.859Z,96773.28
2022-08-02T07:50:14.215Z,96775.44
2022-08-02T07:52:41.838Z,96763.88
2022-08-02T07:55:10.585Z,96772.50
2022-08-02T07:57:43.904Z,96766.47
2022-08-02T08:00:15.034Z,96764.19
2022-08-02T08:02:41.945Z,96767.91
2022-08-02T08:05:09.349Z,96760.06
2022-08-02T08:07:36.284Z,96764.03
2022-08-02T08:10:06.613Z,96752.44
2022-08-02T08:12:33.665Z,96755.38
2022-08-02T08:15:00.514Z,96748.34
2022-08-02T08:17:27.537Z,96753.81
2022-08-02T08:19:54.453Z,96749.38
2022-08-02T08:22:21.656Z,96756.34
2022-08-02T08:24:49.188Z,96749.50
2022-08-02T08:27:18.048Z,96743.38
2022-08-02T08:29:45.562Z,96746.75
2022-08-02T08:32:17.617Z,96746.25
2022-08-02T08:34:46.184Z,96744.63
2022-08-02T08:37:18.357Z,96745.66
2022-08-02T08:39:57.444Z,96744.75
2022-08-02T08:42:29.317Z,96739.94
2022-08-02T08:44:57.449Z,96737.03
2022-08-02T08:47:33.697Z,96751.47
2022-08-02T08:50:17.914Z,96745.22
2022-08-02T08:53:05.492Z,96741.28
2022-08-02T08:55:34.531Z,96743.13
2022-08-02T08:58:03.486Z,96742.78
2022-08-02T09:00:33.268Z,96741.56
2022-08-02T09:03:04.476Z,96739.16
2022-08-02T09:05:31.344Z,96740.59
2022-08-02T09:07:58.165Z,96746.56
2022-08-02T09:10:48.873Z,96750.88
2022-08-02T09:13:38.162Z,96747.53
2022-08-02T09:16:12.273Z,96740.53
2022-08-02T09:18:46.897Z,96744.41
2022-08-02T09:21:17.175Z,96753.66
2022-08-02T09:23:48.130Z,96751.06
2022-08-02T09:26:20.961Z,96751.41
2022-08-02T09:28:52.178Z,96755.16
2022-08-02T09:31:23.231Z,96750.38
2022-08-02T09:33:58.597Z,96757.00
2022-08-02T09:36:28.093Z,96753.31
2022-08-02T09:39:01.978Z,96757.44
2022-08-02T09:41:31.658Z,96765.59
2022-08-02T09:44:04.596Z,96762.25
2022-08-02T09:46:39.319Z,96757.50
2022-08-02T09:49:08.200Z,96750.06
2022-08-02T09:51:41.860Z,96746.41
2022-08-02T09:54:14.208Z,96747.44
2022-08-02T09:56:49.462Z,96755.50
2022-08-02T09:59:18.566Z,96746.28
2022-08-02T10:01:51.506Z,96742.38
2022-08-02T10:04:31.795Z,96742.72
2022-08-02T10:07:04.141Z,96733.69
2022-08-02T10:09:32.978Z,96744.88
2022-08-02T10:12:01.626Z,96739.91
2022-08-02T10:14:28.761Z,96747.78
2022-08-02T10:16:58.174Z,96742.28
2022-08-02T10:20:00.048Z,96741.19
2022-08-02T10:22:15.537Z,96741.03
2022-08-02T10:24:48.337Z,96740.41
2022-08-02T10:27:20.805Z,96745.41
2022-08-02T10:29:55.067Z,96735.63
2022-08-02T10:32:38.081Z,96729.22
2022-08-02T10:35:23.333Z,96732.00
2022-08-02T10:37:57.209Z,96726.41
2022-08-02T10:40:24.333Z,96720.50
2022-08-02T10:43:01.502Z,96721.06
2022-08-02T10:45:29.438Z,96716.47
2022-08-02T10:48:10.571Z,96726.03
2022-08-02T10:50:46.833Z,96727.59
2022-08-02T10:53:25.138Z,96715.09
2022-08-02T10:55:55.177Z,96710.34
2022-08-02T10:58:29.405Z,96710.94
2022-08-02T11:00:58.906Z,96713.88
2022-08-02T11:03:28.860Z,96701.03
2022-08-02T11:06:09.821Z,96697.00
2022-08-02T11:09:32.881Z,96691.94
2022-08-02T11:12:09.711Z,96682.00
2022-08-02T11:14:40.827Z,96677.22
2022-08-02T11:17:13.254Z,96681.16
2022-08-02T11:20:11.826Z,96675.28
2022-08-02T11:22:43.719Z,96666.06
2022-08-02T11:25:22.841Z,96668.28
2022-08-02T11:27:58.653Z,96671.22
2022-08-02T11:30:27.542Z,96670.69
2022-08-02T11:33:01.067Z,96663.41
2022-08-02T11:35:39.848Z,96661.94
2022-08-02T11:38:20.859Z,96668.19
2022-08-02T11:40:49.190Z,96663.97
2022-08-02T11:43:22.179Z,96659.56
2022-08-02T11:45:53.696Z,96664.28
2022-08-02T11:48:37.406Z,96669.78
2022-08-02T11:51:16.728Z,96668.41
2022-08-02T11:53:52.036Z,96669.34
2022-08-02T11:56:28.250Z,96667.38
2022-08-02T11:59:21.415Z,96665.13
2022-08-02T12:01:48.618Z,96673.88
2022-08-02T12:04:22.948Z,96667.38
2022-08-02T12:07:00.207Z,96673.19
2022-08-02T12:09:31.726Z,96665.22
2022-08-02T12:11:59.949Z,96667.38
2022-08-02T12:14:29.464Z,96668.41
2022-08-02T12:17:15.729Z,96663.00
2022-08-02T12:19:43.462Z,96660.31
2022-08-02T12:22:18.100Z,96663.97
2022-08-02T12:24:52.312Z,96663.28
2022-08-02T12:27:37.819Z,96663.78
2022-08-02T12:30:17.485Z,96656.75
2022-08-02T12:33:12.856Z,96652.56
2022-08-02T12:35:40.206Z,96654.34
2022-08-02T12:38:12.182Z,96647.34
2022-08-02T12:40:39.440Z,96643.94
2022-08-02T12:43:08.922Z,96642.72
2022-08-02T12:45:49.646Z,96635.19
2022-08-02T12:48:36.649Z,96639.06
2022-08-02T12:51:58.999Z,96639.75
2022-08-02T12:54:30.627Z,96628.75
2022-08-02T12:57:11.012Z,96637.16
2022-08-02T12:59:42.077Z,96629.72
2022-08-02T13:02:12.914Z,96628.78
2022-08-02T13:04:41.435Z,96632.25
2022-08-02T13:07:09.054Z,96624.47
2022-08-02T13:09:39.600Z,96620.38
2022-08-02T13:12:08.269Z,96620.19
2022-08-02T13:14:41.000Z,96627.97
2022-08-02T13:17:10.260Z,96622.47
2022-08-02T13:19:38.572Z,96609.94
2022-08-02T13:22:11.365Z,96610.59
2022-08-02T13:24:56.181Z,96609.47
2022-08-02T13:27:27.574Z,96613.81
2022-08-02T13:29:56.566Z,96607.91
2022-08-02T13:32:25.696Z,96611.41
2022-08-02T13:34:52.722Z,96598.31
2022-08-02T13:37:19.795Z,96606.84
2022-08-02T13:40:00.518Z,96605.78
2022-08-02T13:42:33.753Z,96596.78
2022-08-02T13:45:00.601Z,96591.25
2022-08-02T13:48:04.057Z,96588.69
2022-08-02T13:50:27.729Z,96583.94
2022-08-02T13:52:55.667Z,96578.56
2022-08-02T13:55:22.544Z,96589.81
2022-08-02T13:57:50.599Z,96579.59
2022-08-02T14:00:35.684Z,96578.78
2022-08-02T14:03:07.442Z,96573.72
2022-08-02T14:05:48.053Z,96570.53
2022-08-02T14:08:22.809Z,96564.59
2022-08-02T14:10:51.266Z,96560.66
2022-08-02T14:13:18.963Z,96562.91
2022-08-02T14:15:46.420Z,96568.75
2022-08-02T14:18:14.810Z,96561.16
2022-08-02T14:20:43.641Z,96568.84
2022-08-02T14:23:10.697Z,96553.44
2022-08-02T14:25:37.621Z,96557.53
2022-08-02T14:28:05.126Z,96557.81
2022-08-02T14:30:32.072Z,96565.47
2022-08-02T14:32:58.973Z,96554.50
2022-08-02T14:35:25.913Z,96567.47
2022-08-02T14:37:52.784Z,96557.44
2022-08-02T14:40:31.249Z,96553.66
2022-08-02T14:43:00.534Z,96552.16
2022-08-02T14:45:36.962Z,96560.59
2022-08-02T14:48:09.833Z,96553.44
2022-08-02T14:50:36.728Z,96558.72
2022-08-02T14:53:03.594Z,96555.44
2022-08-02T14:55:30.429Z,96560.94
2022-08-02T14:57:57.286Z,96554.81
2022-08-02T15:00:24.176Z,96551.06
2022-08-02T15:02:51.076Z,96551.25
2022-08-02T15:05:17.924Z,96550.06
2022-08-02T15:07:49.412Z,96544.09
2022-08-02T15:10:16.613Z,96550.25
2022-08-02T15:12:45.720Z,96550.41
2022-08-02T15:15:12.599Z,96545.81
2022-08-02T15:17:39.518Z,96555.03
2022-08-02T15:20:25.237Z,96556.09
2022-08-02T15:22:52.965Z,96550.75
2022-08-02T15:25:21.101Z,96541.28
2022-08-02T15:27:48.281Z,96556.03
2022-08-02T15:30:15.257Z,96548.59
2022-08-02T15:32:53.146Z,96545.03
2022-08-02T15:35:21.330Z,96552.63
2022-08-02T15:37:48.205Z,96540.78
2022-08-02T15:40:15.054Z,96537.50
2022-08-02T15:42:43.468Z,96542.69
2022-08-02T15:45:15.612Z,96534.78
2022-08-02T15:47:47.821Z,96542.66
2022-08-02T15:50:15.217Z,96547.03
2022-08-02T15:52:42.093Z,96537.41
2022-08-02T15:55:09.101Z,96545.09
2022-08-02T15:57:36.390Z,96537.22
2022-08-02T16:00:04.742Z,96542.13
2022-08-02T16:02:32.362Z,96542.00
2022-08-02T16:04:59.220Z,96548.88
2022-08-02T16:07:26.093Z,96547.41
2022-08-02T16:09:53.009Z,96542.34
2022-08-02T16:12:19.845Z,96547.59
2022-08-02T16:14:59.412Z,96540.88
2022-08-02T16:17:53.671Z,96540.91
2022-08-02T16:20:13.178Z,96542.97
2022-08-02T16:22:40.002Z,96540.09
2022-08-02T16:25:08.294Z,96535.28
2022-08-02T16:28:05.928Z,96529.75
2022-08-02T16:30:23.791Z,96536.53
2022-08-02T16:32:50.627Z,96539.91
2022-08-02T16:35:17.551Z,96528.16
2022-08-02T16:37:52.560Z,96526.59
2022-08-02T16:40:21.304Z,96532.03
2022-08-02T16:42:50.226Z,96530.47
2022-08-02T16:45:20.945Z,96524.56
2022-08-02T16:47:55.174Z,96518.66
2022-08-02T16:50:28.456Z,96521.53
2022-08-02T16:52:59.023Z,96521.69
2022-08-02T16:55:30.347Z,96524.72
2022-08-02T16:57:58.630Z,96520.91
2022-08-02T17:00:26.022Z,96533.69
2022-08-02T17:02:53.304Z,96525.72
2022-08-02T17:05:21.022Z,96531.44
2022-08-02T17:08:07.529Z,96528.91
2022-08-02T17:10:36.134Z,96533.97
2022-08-02T17:13:10.807Z,96525.94
2022-08-02T17:16:08.588Z,96529.50
2022-08-02T17:18:28.479Z,96524.88
2022-08-02T17:20:56.308Z,96527.06
2022-08-02T17:23:23.262Z,96527.50
2022-08-02T17:26:10.150Z,96524.13
2022-08-02T17:28:56.504Z,96526.19
2022-08-02T17:34:14.219Z,96532.47
2022-08-02T17:36:44.863Z,96530.84
2022-08-02T17:39:16.810Z,96527.47
2022-08-02T17:41:49.256Z,96526.13
2022-08-02T17:44:16.736Z,96523.72
2022-08-02T17:47:05.396Z,96528.78
2022-08-02T17:49:32.314Z,96519.47
2022-08-02T17:52:48.261Z,96529.13
2022-08-02T17:54:47.111Z,96531.41
2022-08-02T17:57:14.612Z,96537.63
2022-08-02T17:59:42.255Z,96536.63
2022-08-02T18:02:11.322Z,96540.22
2022-08-02T18:04:38.375Z,96534.03
2022-08-02T18:07:09.887Z,96539.22
2022-08-02T18:09:37.650Z,96529.66
2022-08-02T18:12:14.268Z,96538.28
2022-08-02T18:14:48.941Z,96537.91
2022-08-02T18:17:16.797Z,96543.81
2022-08-02T18:19:57.300Z,96538.13
2022-08-02T18:22:30.316Z,96536.19
2022-08-02T18:24:57.266Z,96541.38
2022-08-02T18:27:24.218Z,96542.97
2022-08-02T18:30:04.212Z,96541.94
2022-08-02T18:33:55.208Z,96535.94
2022-08-02T18:35:19.929Z,96535.69
2022-08-02T18:37:56.714Z,96541.41
2022-08-02T18:40:24.394Z,96536.09
2022-08-02T18:42:51.265Z,96548.09
2022-08-02T18:45:19.525Z,96543.56
2022-08-02T18:47:50.798Z,96548.84
2022-08-02T18:50:19.598Z,96550.88
2022-08-02T18:52:47.950Z,96550.19
2022-08-02T18:55:17.621Z,96552.47
2022-08-02T18:58:18.138Z,96555.81
2022-08-02T19:00:51.663Z,96556.47
2022-08-02T19:03:19.534Z,96565.22
2022-08-02T19:05:52.252Z,96560.47
2022-08-02T19:08:25.609Z,96567.75
2022-08-02T19:10:56.059Z,96564.34
2022-08-02T19:13:23.814Z,96562.75
2022-08-02T19:15:50.804Z,96564.97
2022-08-02T19:18:17.724Z,96566.63
2022-08-02T19:20:48.214Z,96571.22
2022-08-02T19:23:17.071Z,96568.88
2022-08-02T19:25:50.184Z,96567.28
2022-08-02T19:28:26.072Z,96566.25
2022-08-02T19:30:54.778Z,96567.31
2022-08-02T19:33:54.846Z,96567.31
2022-08-02T19:36:08.539Z,96568.38
2022-08-02T19:38:35.395Z,96577.81
2022-08-02T19:41:02.319Z,96585.31
2022-08-02T19:44:22.909Z,96589.41
2022-08-02T19:46:16.224Z,96588.34
2022-08-02T19:48:44.138Z,96589.94
2022-08-02T19:51:13.108Z,96588.38
2022-08-02T19:53:48.620Z,96592.13
2022-08-02T19:56:21.756Z,96592.66
2022-08-02T19:58:53.999Z,96595.34
2022-08-02T20:01:28.214Z,96598.53
2022-08-02T20:04:07.308Z,96599.09
2022-08-02T20:06:42.606Z,96593.75
2022-08-02T20:09:17.127Z,96600.69
2022-08-02T20:11:54.133Z,96607.69
2022-08-02T20:14:26.737Z,96603.38
2022-08-02T20:16:54.561Z,96612.75
2022-08-02T20:19:21.752Z,96605.00
2022-08-02T20:21:56.695Z,96604.13
2022-08-02T20:24:26.698Z,96600.09
2022-08-02T20:26:53.954Z,96591.00
2022-08-02T20:29:42.763Z,96598.50
2022-08-02T20:32:08.010Z,96599.03
2022-08-02T20:34:36.196Z,96599.28
2022-08-02T20:38:00.054Z,96605.16
2022-08-02T20:39:51.859Z,96604.63
2022-08-02T20:42:23.585Z,96600.06
2022-08-02T20:44:54.564Z,96605.88
2022-08-02T20:47:27.702Z,96600.00
2022-08-02T20:50:30.620Z,96592.03
2022-08-02T20:53:02.617Z,96597.38
2022-08-02T20:55:31.816Z,96594.16
2022-08-02T20:58:01.725Z,96601.06
2022-08-02T21:00:30.057Z,96597.34
2022-08-02T21:02:57.668Z,96599.72
2022-08-02T21:05:43.573Z,96597.59
2022-08-02T21:08:14.847Z,96604.59
2022-08-02T21:10:50.378Z,96598.44
2022-08-02T21:13:24.337Z,96599.47
2022-08-02T21:16:00.530Z,96601.34
2022-08-02T21:18:39.758Z,96598.91
2022-08-02T21:21:09.850Z,96595.41
2022-08-02T21:23:37.789Z,96601.00
2022-08-02T21:26:06.741Z,96593.47
2022-08-02T21:28:44.890Z,96598.78
2022-08-02T21:31:15.835Z,96597.09
2022-08-02T21:33:57.802Z,96602.41
2022-08-02T21:36:33.789Z,96591.63
2022-08-02T21:39:18.821Z,96586.75
2022-08-02T21:41:47.492Z,96592.38
2022-08-02T21:44:21.550Z,96580.06
2022-08-02T21:46:54.918Z,96578.97
2022-08-02T21:49:40.622Z,96586.16
2022-08-02T21:52:12.077Z,96582.34
2022-08-02T21:54:40.403Z,96582.88
2022-08-02T21:57:15.647Z,96591.13
2022-08-02T21:59:46.255Z,96576.94
2022-08-02T22:02:15.373Z,96582.72
2022-08-02T22:04:47.791Z,96583.25
2022-08-02T22:07:17.540Z,96585.38
2022-08-02T22:09:51.157Z,96590.19
2022-08-02T22:12:19.307Z,96590.13
2022-08-02T22:14:53.897Z,96593.84
2022-08-02T22:17:51.657Z,96595.72
2022-08-02T22:20:19.995Z,96592.78
2022-08-02T22:22:50.534Z,96602.38
2022-08-02T22:25:27.357Z,96599.34
2022-08-02T22:28:39.306Z,96604.38
2022-08-02T22:31:04.295Z,96604.72
2022-08-02T22:34:01.249Z,96597.25
2022-08-02T22:36:43.269Z,96598.56
2022-08-02T22:39:18.754Z,96599.69
2022-08-02T22:42:02.362Z,96604.28
2022-08-02T22:44:33.932Z,96602.69
2022-08-02T22:47:06.785Z,96606.41
2022-08-02T22:49:38.102Z,96613.84
2022-08-02T22:52:20.914Z,96611.28
2022-08-02T22:54:48.055Z,96607.22
2022-08-02T22:57:14.873Z,96612.56
2022-08-02T22:58:38.929Z,96524.25
2022-08-02T22:59:41.895Z,96609.09
2022-08-02T23:02:09.963Z,96609.94
2022-08-02T23:04:37.724Z,96621.44
2022-08-02T23:07:05.800Z,96615.75
2022-08-02T23:09:32.738Z,96609.84
2022-08-02T23:11:59.549Z,96616.28
2022-08-02T23:14:26.515Z,96624.22
2022-08-02T23:17:11.686Z,96619.47
2022-08-02T23:19:50.747Z,96613.00
2022-08-02T23:22:30.058Z,96612.09
2022-08-02T23:25:00.727Z,96614.84
2022-08-02T23:27:28.721Z,96608.69
2022-08-02T23:29:55.597Z,96618.41
2022-08-02T23:32:22.868Z,96614.06
2022-08-02T23:34:53.622Z,96618.84
2022-08-02T23:37:20.448Z,96621.16
2022-08-02T23:39:47.280Z,96624.47
2022-08-02T23:42:14.829Z,96625.09
2022-08-02T23:44:41.961Z,96617.63
2022-08-02T23:47:10.914Z,96620.88
2022-08-02T23:49:37.890Z,96622.91
2022-08-02T23:52:04.942Z,96623.16
2022-08-02T23:54:31.752Z,96622.28
2022-08-02T23:56:59.193Z,96618.00
2022-08-02T23:59:26.156Z,96624.94
